sensor_id;sensor_type;location;lat;lon;timestamp;P1;durP1;ratioP1;P2;durP2;ratioP2
53545;SDS011;39432;51.902;10.844;2022-07-23T00:01:57;8.25;;;4.13;;
53545;SDS011;39432;51.902;10.844;2022-07-23T00:04:27;11.15;;;4.88;;
53545;SDS011;39432;51.902;10.844;2022-07-23T00:06:56;10.57;;;5.10;;
53545;SDS011;39432;51.902;10.844;2022-07-23T00:09:28;8.02;;;4.43;;
53545;SDS011;39432;51.902;10.844;2022-07-23T00:11:58;9.07;;;4.78;;
53545;SDS011;39432;51.902;10.844;2022-07-23T00:14:27;9.77;;;4.80;;
53545;SDS011;39432;51.902;10.844;2022-07-23T00:16:57;7.57;;;4.63;;
53545;SDS011;39432;51.902;10.844;2022-07-23T00:19:26;9.27;;;3.97;;
53545;SDS011;39432;51.902;10.844;2022-07-23T00:21:55;7.18;;;4.65;;
53545;SDS011;39432;51.902;10.844;2022-07-23T00:24:25;6.47;;;4.00;;
53545;SDS011;39432;51.902;10.844;2022-07-23T00:26:57;8.45;;;3.97;;
53545;SDS011;39432;51.902;10.844;2022-07-23T00:29:26;7.95;;;3.95;;
53545;SDS011;39432;51.902;10.844;2022-07-23T00:31:56;7.22;;;3.80;;
53545;SDS011;39432;51.902;10.844;2022-07-23T00:34:25;5.97;;;3.78;;
53545;SDS011;39432;51.902;10.844;2022-07-23T00:36:54;9.93;;;3.75;;
53545;SDS011;39432;51.902;10.844;2022-07-23T00:39:24;7.00;;;3.30;;
53545;SDS011;39432;51.902;10.844;2022-07-23T00:41:53;7.97;;;3.47;;
53545;SDS011;39432;51.902;10.844;2022-07-23T00:44:26;9.05;;;3.50;;
53545;SDS011;39432;51.902;10.844;2022-07-23T00:46:57;7.28;;;3.67;;
53545;SDS011;39432;51.902;10.844;2022-07-23T00:49:28;7.32;;;4.05;;
53545;SDS011;39432;51.902;10.844;2022-07-23T00:51:58;6.80;;;3.83;;
53545;SDS011;39432;51.902;10.844;2022-07-23T00:54:29;6.97;;;4.47;;
53545;SDS011;39432;51.902;10.844;2022-07-23T00:56:58;7.28;;;4.15;;
53545;SDS011;39432;51.902;10.844;2022-07-23T00:59:31;8.85;;;4.40;;
53545;SDS011;39432;51.902;10.844;2022-07-23T01:02:00;6.38;;;3.92;;
53545;SDS011;39432;51.902;10.844;2022-07-23T01:04:29;7.53;;;4.43;;
53545;SDS011;39432;51.902;10.844;2022-07-23T01:06:59;7.20;;;4.22;;
53545;SDS011;39432;51.902;10.844;2022-07-23T01:09:28;8.50;;;4.97;;
53545;SDS011;39432;51.902;10.844;2022-07-23T01:11:58;7.78;;;4.90;;
53545;SDS011;39432;51.902;10.844;2022-07-23T01:14:27;7.63;;;4.43;;
53545;SDS011;39432;51.902;10.844;2022-07-23T01:17:00;10.65;;;5.47;;
53545;SDS011;39432;51.902;10.844;2022-07-23T01:19:29;10.65;;;5.07;;
53545;SDS011;39432;51.902;10.844;2022-07-23T01:22:00;9.38;;;5.85;;
53545;SDS011;39432;51.902;10.844;2022-07-23T01:24:33;9.50;;;5.57;;
53545;SDS011;39432;51.902;10.844;2022-07-23T01:27:04;11.18;;;5.93;;
53545;SDS011;39432;51.902;10.844;2022-07-23T01:29:36;8.68;;;5.20;;
53545;SDS011;39432;51.902;10.844;2022-07-23T01:32:11;8.98;;;5.75;;
53545;SDS011;39432;51.902;10.844;2022-07-23T01:34:41;10.98;;;6.25;;
53545;SDS011;39432;51.902;10.844;2022-07-23T01:37:11;10.70;;;5.97;;
53545;SDS011;39432;51.902;10.844;2022-07-23T01:39:43;17.75;;;6.57;;
53545;SDS011;39432;51.902;10.844;2022-07-23T01:42:13;10.07;;;6.65;;
53545;SDS011;39432;51.902;10.844;2022-07-23T01:44:44;9.85;;;6.47;;
53545;SDS011;39432;51.902;10.844;2022-07-23T01:47:18;10.50;;;7.03;;
53545;SDS011;39432;51.902;10.844;2022-07-23T01:49:50;11.07;;;6.30;;
53545;SDS011;39432;51.902;10.844;2022-07-23T01:52:41;12.13;;;7.93;;
53545;SDS011;39432;51.902;10.844;2022-07-23T01:55:13;13.73;;;7.55;;
53545;SDS011;39432;51.902;10.844;2022-07-23T01:57:46;12.23;;;7.60;;
53545;SDS011;39432;51.902;10.844;2022-07-23T02:00:19;12.48;;;7.40;;
53545;SDS011;39432;51.902;10.844;2022-07-23T02:02:50;12.77;;;7.45;;
53545;SDS011;39432;51.902;10.844;2022-07-23T02:05:21;10.27;;;7.00;;
53545;SDS011;39432;51.902;10.844;2022-07-23T02:07:50;10.45;;;7.22;;
53545;SDS011;39432;51.902;10.844;2022-07-23T02:10:23;14.27;;;7.70;;
53545;SDS011;39432;51.902;10.844;2022-07-23T02:12:53;13.40;;;7.45;;
53545;SDS011;39432;51.902;10.844;2022-07-23T02:15:22;13.07;;;7.93;;
53545;SDS011;39432;51.902;10.844;2022-07-23T02:17:52;17.80;;;8.63;;
53545;SDS011;39432;51.902;10.844;2022-07-23T02:20:22;12.95;;;8.68;;
53545;SDS011;39432;51.902;10.844;2022-07-23T02:22:51;15.45;;;8.40;;
53545;SDS011;39432;51.902;10.844;2022-07-23T02:25:23;11.38;;;8.05;;
53545;SDS011;39432;51.902;10.844;2022-07-23T02:27:58;11.00;;;7.47;;
53545;SDS011;39432;51.902;10.844;2022-07-23T02:30:27;12.32;;;7.70;;
53545;SDS011;39432;51.902;10.844;2022-07-23T02:32:57;12.27;;;7.82;;
53545;SDS011;39432;51.902;10.844;2022-07-23T02:35:27;12.93;;;7.95;;
53545;SDS011;39432;51.902;10.844;2022-07-23T02:37:59;13.70;;;7.32;;
53545;SDS011;39432;51.902;10.844;2022-07-23T02:40:33;14.98;;;7.88;;
53545;SDS011;39432;51.902;10.844;2022-07-23T02:43:02;13.80;;;8.10;;
53545;SDS011;39432;51.902;10.844;2022-07-23T02:45:32;12.50;;;8.15;;
53545;SDS011;39432;51.902;10.844;2022-07-23T02:48:01;13.10;;;7.78;;
53545;SDS011;39432;51.902;10.844;2022-07-23T02:50:31;13.25;;;6.93;;
53545;SDS011;39432;51.902;10.844;2022-07-23T02:53:00;14.43;;;7.18;;
53545;SDS011;39432;51.902;10.844;2022-07-23T02:55:33;14.85;;;7.85;;
53545;SDS011;39432;51.902;10.844;2022-07-23T02:58:02;11.68;;;6.80;;
53545;SDS011;39432;51.902;10.844;2022-07-23T03:00:31;12.43;;;7.20;;
53545;SDS011;39432;51.902;10.844;2022-07-23T03:03:01;12.02;;;7.20;;
53545;SDS011;39432;51.902;10.844;2022-07-23T03:05:30;14.85;;;7.68;;
53545;SDS011;39432;51.902;10.844;2022-07-23T03:08:00;16.45;;;8.25;;
53545;SDS011;39432;51.902;10.844;2022-07-23T03:10:29;13.57;;;7.78;;
53545;SDS011;39432;51.902;10.844;2022-07-23T03:13:01;12.50;;;7.70;;
53545;SDS011;39432;51.902;10.844;2022-07-23T03:15:30;14.15;;;7.20;;
53545;SDS011;39432;51.902;10.844;2022-07-23T03:18:00;16.60;;;7.68;;
53545;SDS011;39432;51.902;10.844;2022-07-23T03:20:29;13.73;;;8.38;;
53545;SDS011;39432;51.902;10.844;2022-07-23T03:22:59;11.52;;;7.32;;
53545;SDS011;39432;51.902;10.844;2022-07-23T03:25:29;10.63;;;7.78;;
53545;SDS011;39432;51.902;10.844;2022-07-23T03:28:01;13.32;;;7.95;;
53545;SDS011;39432;51.902;10.844;2022-07-23T03:30:31;15.65;;;8.10;;
53545;SDS011;39432;51.902;10.844;2022-07-23T03:33:00;13.18;;;7.63;;
53545;SDS011;39432;51.902;10.844;2022-07-23T03:35:29;11.70;;;7.32;;
53545;SDS011;39432;51.902;10.844;2022-07-23T03:38:14;13.60;;;7.97;;
53545;SDS011;39432;51.902;10.844;2022-07-23T03:40:43;15.13;;;8.55;;
53545;SDS011;39432;51.902;10.844;2022-07-23T03:43:16;16.05;;;8.65;;
53545;SDS011;39432;51.902;10.844;2022-07-23T03:45:45;13.20;;;8.32;;
53545;SDS011;39432;51.902;10.844;2022-07-23T03:48:15;15.90;;;8.73;;
53545;SDS011;39432;51.902;10.844;2022-07-23T03:50:44;14.45;;;8.35;;
53545;SDS011;39432;51.902;10.844;2022-07-23T03:53:14;12.13;;;8.02;;
53545;SDS011;39432;51.902;10.844;2022-07-23T03:55:43;14.82;;;8.10;;
53545;SDS011;39432;51.902;10.844;2022-07-23T03:58:15;12.75;;;8.50;;
53545;SDS011;39432;51.902;10.844;2022-07-23T04:00:45;17.92;;;8.85;;
53545;SDS011;39432;51.902;10.844;2022-07-23T04:03:15;16.33;;;8.73;;
53545;SDS011;39432;51.902;10.844;2022-07-23T04:05:44;11.50;;;7.72;;
53545;SDS011;39432;51.902;10.844;2022-07-23T04:08:14;14.02;;;8.82;;
53545;SDS011;39432;51.902;10.844;2022-07-23T04:10:49;13.75;;;8.55;;
53545;SDS011;39432;51.902;10.844;2022-07-23T04:13:21;21.88;;;9.35;;
53545;SDS011;39432;51.902;10.844;2022-07-23T04:15:50;14.65;;;8.63;;
53545;SDS011;39432;51.902;10.844;2022-07-23T04:18:20;19.10;;;8.50;;
53545;SDS011;39432;51.902;10.844;2022-07-23T04:21:04;14.13;;;7.82;;
53545;SDS011;39432;51.902;10.844;2022-07-23T04:23:35;15.02;;;8.48;;
53545;SDS011;39432;51.902;10.844;2022-07-23T04:26:05;16.38;;;9.02;;
53545;SDS011;39432;51.902;10.844;2022-07-23T04:28:43;14.43;;;7.95;;
53545;SDS011;39432;51.902;10.844;2022-07-23T04:31:13;13.88;;;8.18;;
53545;SDS011;39432;51.902;10.844;2022-07-23T04:33:42;16.45;;;7.75;;
53545;SDS011;39432;51.902;10.844;2022-07-23T04:36:12;15.65;;;8.05;;
53545;SDS011;39432;51.902;10.844;2022-07-23T04:38:41;12.35;;;7.53;;
53545;SDS011;39432;51.902;10.844;2022-07-23T04:41:16;15.30;;;7.93;;
53545;SDS011;39432;51.902;10.844;2022-07-23T04:43:48;15.15;;;8.75;;
53545;SDS011;39432;51.902;10.844;2022-07-23T04:46:17;17.05;;;8.48;;
53545;SDS011;39432;51.902;10.844;2022-07-23T04:48:49;18.02;;;8.65;;
53545;SDS011;39432;51.902;10.844;2022-07-23T04:51:19;20.67;;;9.20;;
53545;SDS011;39432;51.902;10.844;2022-07-23T04:53:48;16.35;;;8.15;;
53545;SDS011;39432;51.902;10.844;2022-07-23T04:56:19;17.33;;;8.60;;
53545;SDS011;39432;51.902;10.844;2022-07-23T04:58:51;12.30;;;7.63;;
53545;SDS011;39432;51.902;10.844;2022-07-23T05:01:21;15.88;;;8.88;;
53545;SDS011;39432;51.902;10.844;2022-07-23T05:03:50;14.98;;;8.35;;
53545;SDS011;39432;51.902;10.844;2022-07-23T05:06:20;16.48;;;8.13;;
53545;SDS011;39432;51.902;10.844;2022-07-23T05:08:50;18.08;;;8.75;;
53545;SDS011;39432;51.902;10.844;2022-07-23T05:11:19;14.77;;;8.25;;
53545;SDS011;39432;51.902;10.844;2022-07-23T05:13:55;15.43;;;8.20;;
53545;SDS011;39432;51.902;10.844;2022-07-23T05:16:25;13.80;;;8.43;;
53545;SDS011;39432;51.902;10.844;2022-07-23T05:18:59;12.60;;;7.65;;
53545;SDS011;39432;51.902;10.844;2022-07-23T05:21:32;18.38;;;9.02;;
53545;SDS011;39432;51.902;10.844;2022-07-23T05:24:02;16.23;;;8.45;;
53545;SDS011;39432;51.902;10.844;2022-07-23T05:26:32;19.70;;;8.77;;
53545;SDS011;39432;51.902;10.844;2022-07-23T05:29:04;17.17;;;8.70;;
53545;SDS011;39432;51.902;10.844;2022-07-23T05:31:34;10.85;;;7.65;;
53545;SDS011;39432;51.902;10.844;2022-07-23T05:34:04;16.98;;;7.82;;
53545;SDS011;39432;51.902;10.844;2022-07-23T05:36:34;16.27;;;7.97;;
53545;SDS011;39432;51.902;10.844;2022-07-23T05:39:04;13.95;;;7.55;;
53545;SDS011;39432;51.902;10.844;2022-07-23T05:41:35;16.05;;;8.23;;
53545;SDS011;39432;51.902;10.844;2022-07-23T05:44:08;15.48;;;7.10;;
53545;SDS011;39432;51.902;10.844;2022-07-23T05:46:39;15.30;;;8.00;;
53545;SDS011;39432;51.902;10.844;2022-07-23T05:49:13;15.48;;;7.47;;
